Latest Weather Observations for Southern Cross Airport

IDW60801

Issued at 9:13 am WST Monday 26 August 2019 (issued every 10 minutes, with the page automatically refreshed every 10 minutes)

About weather observations | Map of weather stations | Latest weather observations for WA | Other Formats
Station Details ID: 012320 Name: SOUTHERN CROSS AIRFIELD Lat: -31.24 Lon: 119.36 Height: 347.4 m
Data from the previous 72 hours. | See also: Recent months at Southern Cross Airport
Date/Time
WST
Temp
°C
App
Temp
°C
Dew
Point
°C
Rel
Hum
%
Delta-T
°C
Wind Press
QNH
hPa
Press
MSL
hPa
Rain since
9am
mm
Dir  Spd
km/h
Gust
km/h
Spd
kts
Gust
kts
26/09:00am 13.0 7.5 2.0 47 4.8 NE 20 28 11 15 1027.2 1027.3 0.0
26/08:30am 10.9 6.0 2.0 54 3.9 NE 17 24 9 13 1027.2 1027.3 0.0
26/08:00am 9.0 5.2 1.9 61 3.0 E 11 17 6 9 1027.3 1027.4 0.0
26/07:30am 6.6 2.9 2.3 74 1.8 ESE 11 13 6 7 1027.2 1027.3 0.0
26/07:00am 4.7 1.3 1.7 81 1.2 ESE 9 13 5 7 1027.1 1027.2 0.0
26/06:30am 3.6 -0.3 1.2 84 0.9 ESE 11 15 6 8 1026.9 1027.0 0.0
26/06:00am 4.2 0.3 1.4 82 1.1 SE 11 15 6 8 1026.4 1026.6 0.0
26/05:30am 4.6 0.8 1.6 81 1.2 SE 11 13 6 7 1026.3 1026.5 0.0
26/05:00am 4.9 0.7 1.7 80 1.3 SE 13 15 7 8 1026.0 1026.2 0.0
26/04:30am 4.6 1.2 1.6 81 1.2 SE 9 11 5 6 1025.6 1025.8 0.0
26/04:00am 4.7 0.5 1.4 79 1.3 SE 13 15 7 8 1025.4 1025.6 0.0
26/03:30am 5.6 1.4 1.5 75 1.7 SE 13 15 7 8 1025.4 1025.6 0.0
26/03:00am 5.8 1.9 1.3 73 1.8 ESE 11 15 6 8 1025.4 1025.6 0.0
26/02:30am 6.3 1.7 1.4 71 2.0 ESE 15 17 8 9 1025.3 1025.5 0.0
26/02:00am 6.5 1.5 1.2 69 2.1 ESE 17 20 9 11 1025.1 1025.2 0.0
26/01:30am 6.0 0.9 1.0 70 2.0 ESE 17 19 9 10 1025.2 1025.3 0.0
26/01:00am 7.0 1.5 0.9 65 2.5 ESE 19 22 10 12 1025.4 1025.6 0.0
26/12:30am 7.0 2.7 1.1 66 2.4 ESE 13 15 7 8 1025.4 1025.6 0.0
26/12:00am 7.3 3.0 1.0 64 2.6 ESE 13 15 7 8 1025.4 1025.6 0.0
 
Date/Time
WST
Temp
°C
App
Temp
°C
Dew
Point
°C
Rel
Hum
%
Delta-T
°C
Wind Press
QNH
hPa
Press
MSL
hPa
Rain since
9am
mm
Dir  Spd
km/h
Gust
km/h
Spd
kts
Gust
kts
25/11:30pm 7.3 3.0 1.0 64 2.6 ESE 13 15 7 8 1025.4 1025.6 0.0
25/11:00pm 9.7 5.0 0.9 54 3.7 E 15 20 8 11 1025.4 1025.6 0.0
25/10:30pm 9.8 5.1 0.7 53 3.8 E 15 19 8 10 1025.5 1025.7 0.0
25/10:00pm 10.0 5.7 0.9 53 3.8 E 13 17 7 9 1025.7 1025.9 0.0
25/09:30pm 8.8 4.9 1.0 58 3.2 E 11 17 6 9 1025.7 1025.9 0.0
25/09:00pm 10.7 6.4 0.7 50 4.2 E 13 17 7 9 1025.6 1025.8 0.0
25/08:30pm 10.9 6.6 0.9 50 4.2 E 13 17 7 9 1025.5 1025.7 0.0
25/08:00pm 10.6 6.3 0.9 51 4.1 E 13 17 7 9 1025.5 1025.7 0.0
25/07:30pm 11.5 7.6 1.2 49 4.4 E 11 15 6 8 1025.2 1025.3 0.0
25/07:00pm 12.1 8.2 1.1 47 4.7 E 11 15 6 8 1024.9 1025.0 0.0
25/06:30pm 13.1 9.5 0.8 43 5.3 E 9 13 5 7 1024.6 1024.7 0.0
25/06:00pm 14.5 10.5 0.7 39 6.0 ENE 11 15 6 8 1024.2 1024.3 0.0
25/05:30pm 15.6 11.2 0.2 35 6.7 E 13 17 7 9 1024.0 1024.1 0.0
25/05:00pm 16.3 11.9 0.4 34 7.0 E 13 17 7 9 1023.6 1023.8 0.0
25/04:30pm 16.6 11.5 0.7 34 7.1 ENE 17 24 9 13 1023.3 1023.5 0.0
25/04:00pm 17.0 11.8 0.2 32 7.4 E 17 28 9 15 1023.2 1023.4 0.0
25/03:30pm 16.9 11.8 0.5 33 7.3 ENE 17 22 9 12 1023.3 1023.5 0.0
25/03:00pm 17.4 11.6 0.1 31 7.6 E 20 32 11 17 1023.4 1023.6 0.0
25/02:30pm 17.6 12.5 0.7 32 7.6 ENE 17 28 9 15 1023.5 1023.7 0.0
25/02:00pm 16.9 11.3 0.1 32 7.3 ENE 19 28 10 15 1023.6 1023.8 0.0
25/01:30pm 16.5 10.8 0.6 34 7.0 ENE 20 33 11 18 1024.1 1024.2 0.0
25/01:00pm 16.2 11.9 1.1 36 6.7 ENE 13 26 7 14 1024.7 1024.8 0.0
25/12:30pm 15.9 10.6 1.6 38 6.4 NE 19 26 10 14 1025.2 1025.3 0.0
25/12:00pm 15.5 10.5 1.6 39 6.2 NE 17 28 9 15 1025.8 1026.0 0.0
25/11:30am 15.8 10.0 2.2 40 6.2 NNE 22 32 12 17 1026.2 1026.4 0.0
25/11:00am 15.4 9.7 2.6 42 5.8 N 22 30 12 16 1026.6 1026.8 0.0
25/10:30am 14.7 9.5 3.8 48 5.1 N 20 28 11 15 1026.9 1027.0 0.0
25/10:00am 13.4 9.3 4.3 54 4.2 N 15 20 8 11 1027.3 1027.4 0.0
25/09:30am 12.2 7.4 4.4 59 3.6 NE 19 24 10 13 1027.4 1027.5 0.0
25/09:00am 11.1 6.7 4.8 65 2.9 NNE 17 24 9 13 1027.6 1027.7 0.0
25/08:30am 9.7 4.8 4.3 69 2.4 NE 19 30 10 16 1027.6 1027.7 0.0
25/08:00am 8.8 6.3 4.6 75 1.9 N 7 11 4 6 1027.3 1027.4 0.0
25/07:30am 6.7 4.2 3.9 82 1.2 SSW 6 11 3 6 1026.9 1027.0 0.0
25/07:00am 5.8 2.9 2.8 81 1.3 NE 7 13 4 7 1026.2 1026.4 0.0
25/06:30am 5.7 2.9 3.2 84 1.1 ESE 7 13 4 7 1025.8 1026.0 0.0
25/06:00am 5.6 2.4 2.9 83 1.1 ESE 9 13 5 7 1025.6 1025.8 0.0
25/05:30am 5.8 1.8 2.8 81 1.3 ESE 13 19 7 10 1025.3 1025.5 0.0
25/05:00am 6.7 2.0 3.0 77 1.6 E 17 22 9 12 1025.0 1025.1 0.0
25/04:30am 6.7 2.3 2.8 76 1.7 E 15 24 8 13 1024.8 1024.9 0.0
25/04:00am 6.2 1.1 2.8 79 1.4 ESE 19 22 10 12 1024.6 1024.7 0.0
25/03:30am 6.6 1.5 2.9 77 1.6 ESE 19 24 10 13 1024.7 1024.8 0.0
25/03:00am 6.1 1.4 2.9 80 1.3 ESE 17 20 9 11 1024.7 1024.8 0.0
25/02:30am 5.7 0.5 2.4 79 1.4 ESE 19 20 10 11 1025.0 1025.1 0.0
25/02:00am 5.6 0.7 1.9 77 1.5 ESE 17 19 9 10 1025.2 1025.3 0.0
25/01:30am 5.8 0.9 1.7 75 1.7 ESE 17 19 9 10 1025.5 1025.7 0.0
25/01:00am 7.3 2.4 1.8 68 2.3 ESE 17 20 9 11 1025.8 1026.0 0.0
25/12:30am 8.0 3.4 1.8 65 2.6 E 15 20 8 11 1025.8 1026.0 0.0
25/12:00am 8.0 3.1 1.8 65 2.6 E 17 22 9 12 1026.0 1026.2 0.0
 
Date/Time
WST
Temp
°C
App
Temp
°C
Dew
Point
°C
Rel
Hum
%
Delta-T
°C
Wind Press
QNH
hPa
Press
MSL
hPa
Rain since
9am
mm
Dir  Spd
km/h
Gust
km/h
Spd
kts
Gust
kts
24/11:30pm 8.5 3.6 1.9 63 2.8 E 17 22 9 12 1026.0 1026.2 0.0
24/11:00pm 8.6 3.7 2.0 63 2.8 E 17 24 9 13 1026.0 1026.2 0.0
24/10:30pm 8.7 4.1 1.8 62 2.9 E 15 20 8 11 1026.1 1026.3 0.0
24/10:00pm 9.2 4.7 2.1 61 3.0 E 15 22 8 12 1026.3 1026.5 0.0
24/09:30pm 9.7 4.8 2.1 59 3.3 E 17 22 9 12 1026.4 1026.6 0.0
24/09:00pm 10.1 5.6 2.0 57 3.5 E 15 20 8 11 1026.5 1026.7 0.0
24/08:30pm 9.9 5.3 1.8 57 3.5 E 15 22 8 12 1026.2 1026.4 0.0
24/08:00pm 9.1 4.5 1.3 58 3.2 ESE 15 17 8 9 1026.0 1026.2 0.0
24/07:30pm 10.6 6.6 0.6 50 4.2 E 11 17 6 9 1025.7 1025.9 0.0
24/07:00pm 11.2 6.8 0.6 48 4.4 E 13 15 7 8 1025.5 1025.7 0.0
24/06:30pm 12.4 8.8 0.5 44 5.1 E 9 11 5 6 1025.1 1025.2 0.0
24/06:00pm 13.5 9.9 0.5 41 5.6 E 9 13 5 7 1024.6 1024.7 0.0
24/05:30pm 15.1 10.3 0.2 36 6.5 E 15 22 8 12 1024.3 1024.4 0.0
24/05:00pm 16.2 11.7 -0.1 33 7.0 E 13 19 7 10 1024.1 1024.2 0.0
24/04:30pm 16.6 12.1 -0.1 32 7.3 ENE 13 24 7 13 1024.2 1024.3 0.0
24/04:00pm 16.8 12.3 0.0 32 7.3 E 13 19 7 10 1024.1 1024.2 0.0
24/03:30pm 17.0 13.0 0.6 33 7.3 ENE 11 20 6 11 1024.1 1024.2 0.0
24/03:00pm 16.9 12.1 0.5 33 7.2 E 15 24 8 13 1024.2 1024.3 0.0
24/02:30pm 16.6 11.8 0.3 33 7.2 ESE 15 20 8 11 1024.3 1024.4 0.0
24/02:00pm 16.3 12.3 0.8 35 6.8 E 11 24 6 13 1024.6 1024.7 0.0
24/01:30pm 16.1 11.4 1.0 36 6.7 ESE 15 20 8 11 1024.9 1025.0 0.0
24/01:00pm 16.2 12.4 1.9 38 6.4 NE 11 20 6 11 1025.1 1025.2 0.0
24/12:30pm 15.1 10.5 1.3 39 6.1 NE 15 26 8 14 1025.6 1025.8 0.0
24/12:00pm 14.7 9.8 2.3 43 5.6 ESE 17 24 9 13 1025.9 1026.1 0.0
24/11:30am 14.3 9.6 3.2 47 5.1 E 17 28 9 15 1026.5 1026.7 0.0
24/11:00am 13.1 7.8 3.2 51 4.5 ENE 20 28 11 15 1027.0 1027.1 0.0
24/10:30am 12.5 7.5 3.5 54 4.1 E 19 32 10 17 1027.3 1027.4 0.0
24/10:00am 12.0 7.1 4.0 58 3.6 E 19 26 10 14 1027.6 1027.7 0.0
24/09:30am 10.5 6.6 5.5 71 2.3 E 15 20 8 11 1027.9 1028.1 0.0
24/09:00am 8.4 5.2 5.2 80 1.4 E 11 13 6 7 1028.1 1028.3 0.0
24/08:30am 6.5 4.3 5.1 91 0.6 SE 6 9 3 5 1028.2 1028.4 0.0
24/08:00am 3.7 0.9 3.0 95 0.3 SSW 7 7 4 4 1027.8 1028.0 0.0
24/07:30am 1.6 -0.2 0.9 95 0.3 CALM 0 0 0 0 1027.5 1027.6 0.0
24/07:00am 0.0 -2.1 -0.7 95 0.3 CALM 0 0 0 0 1027.1 1027.2 0.0
24/06:30am -0.5 -2.7 -1.3 94 0.3 CALM 0 0 0 0 1026.8 1026.9 0.0
24/06:00am -0.2 -3.5 -0.9 95 0.2 SSW 6 7 3 4 1026.4 1026.6 0.0
24/05:30am -0.6 -3.2 -1.4 94 0.3 S 2 6 1 3 1026.1 1026.3 0.0
24/05:00am 0.4 -3.0 -0.5 94 0.3 SW 7 9 4 5 1025.5 1025.7 0.0
24/04:30am 0.6 -2.6 -0.3 94 0.3 SSW 6 7 3 4 1025.3 1025.5 0.0
24/04:00am 1.3 -1.4 0.4 94 0.3 S 4 6 2 3 1025.1 1025.2 0.0
24/03:30am 2.2 -1.7 1.3 94 0.4 S 11 13 6 7 1024.9 1025.0 0.0
24/03:00am 1.4 -1.9 0.4 93 0.4 S 7 9 4 5 1025.0 1025.1 0.0
24/02:30am 2.2 -0.9 1.2 93 0.4 S 7 9 4 5 1024.9 1025.0 0.0
24/02:00am 2.7 -0.3 1.7 93 0.4 SSW 7 7 4 4 1024.9 1025.0 0.0
24/01:30am 2.7 -0.4 1.4 91 0.5 S 7 9 4 5 1025.0 1025.1 0.0
24/01:00am 3.7 0.7 2.2 90 0.6 SE 7 9 4 5 1025.1 1025.2 0.0
24/12:30am 3.7 0.3 1.9 88 0.7 ESE 9 11 5 6 1025.1 1025.2 0.0
24/12:00am 5.0 1.9 3.5 90 0.6 E 9 11 5 6 1025.1 1025.2 0.0
 
Date/Time
WST
Temp
°C
App
Temp
°C
Dew
Point
°C
Rel
Hum
%
Delta-T
°C
Wind Press
QNH
hPa
Press
MSL
hPa
Rain since
9am
mm
Dir  Spd
km/h
Gust
km/h
Spd
kts
Gust
kts
23/11:30pm 4.7 3.2 2.9 88 0.8 CALM 0 0 0 0 1025.0 1025.1 0.0
23/11:00pm 5.4 2.7 3.6 88 0.8 SSE 7 11 4 6 1024.8 1024.9 0.0
23/10:30pm 5.9 3.2 3.6 85 1.0 SE 7 9 4 5 1024.7 1024.8 0.0
23/10:00pm 7.4 3.7 4.4 81 1.3 SE 13 15 7 8 1024.5 1024.6 0.0
23/09:30pm 8.0 4.3 4.4 78 1.6 SE 13 17 7 9 1024.3 1024.4 0.0
23/09:00pm 9.0 4.2 4.6 74 2.0 SE 19 22 10 12 1024.2 1024.3 0.0
23/08:30pm 9.9 4.9 4.5 69 2.5 SE 20 26 11 14 1023.9 1024.0 0.0
23/08:00pm 10.4 6.4 4.8 68 2.6 SSE 15 19 8 10 1023.5 1023.7 0.0
23/07:30pm 9.3 8.2 5.1 75 1.9 CALM 0 6 0 3 1023.1 1023.3 0.0
23/07:00pm 9.7 7.5 5.1 73 2.1 SW 6 6 3 3 1022.5 1022.6 0.0
23/06:30pm 9.9 7.0 4.9 71 2.3 SW 9 11 5 6 1022.2 1022.3 0.0
23/06:00pm 10.8 6.8 4.9 67 2.7 SSW 15 19 8 10 1021.8 1021.9 0.0
23/05:30pm 12.0 7.2 4.5 60 3.5 S 19 30 10 16 1021.3 1021.4 0.0
23/05:00pm 12.5 7.0 5.9 64 3.2 S 24 33 13 18 1021.1 1021.2 0.0
23/04:30pm 12.5 5.7 6.8 68 2.8 S 32 41 17 22 1020.8 1020.9 0.0
23/04:00pm 14.0 9.2 5.6 57 4.0 SW 20 32 11 17 1020.0 1020.1 0.0
23/03:30pm 14.0 8.1 5.6 57 4.0 SW 26 35 14 19 1019.9 1020.0 0.0
23/03:00pm 12.8 6.9 9.1 78 1.9 SSW 30 41 16 22 1019.8 1019.9 0.0
23/02:48pm 13.0 6.0 6.1 63 3.3 SW 32 50 17 27 1019.7 1019.8 0.0
23/02:45pm 14.7 8.3 5.0 52 4.6 WSW 28 46 15 25 1019.5 1019.6 0.0
23/02:30pm 15.1 8.6 4.5 49 5.0 SW 28 37 15 20 1019.4 1019.5 0.0
23/02:00pm 15.9 10.0 4.0 45 5.6 SSW 24 35 13 19 1019.2 1019.3 0.0
23/01:30pm 14.7 7.9 3.2 46 5.3 SSW 28 43 15 23 1019.2 1019.3 0.0
23/01:00pm 16.6 10.0 1.9 37 6.7 SW 26 37 14 20 1019.1 1019.2 0.0
23/12:30pm 15.8 7.8 0.4 35 6.7 SW 32 39 17 21 1019.3 1019.4 0.0
23/12:00pm 16.3 9.7 4.0 44 5.8 SW 28 35 15 19 1019.6 1019.7 0.0
23/11:30am 14.7 7.4 4.4 50 4.9 SSW 32 43 17 23 1019.7 1019.8 0.0
23/11:00am 12.9 6.9 5.3 60 3.6 SW 26 35 14 19 1019.9 1020.0 0.0
23/10:30am 12.5 7.0 6.1 65 3.1 SW 24 33 13 18 1019.8 1019.9 0.0
23/10:00am 12.5 7.4 7.8 73 2.3 WSW 24 32 13 17 1019.8 1019.9 0.0
23/09:30am 12.7 7.6 7.6 71 2.5 WSW 24 35 13 19 1019.7 1019.8 0.0

Other formats

Comma delimited format used in spreadsheet applications
http://www.bom.gov.au/fwo/IDW60801/IDW60801.95634.axf

JavaScript Object Notation format (JSON) in row-major order
http://www.bom.gov.au/fwo/IDW60801/IDW60801.95634.json

Data quality

Most of these data are generated automatically and are frequently updated. Quality checks on data are not normally performed. It is possible for incorrect values to appear. Refer to information at About Latest Weather Observations and please check the disclaimer before using these data.